sensor_id;sensor_type;location;lat;lon;timestamp;P1;durP1;ratioP1;P2;durP2;ratioP2
13580;SDS011;6861;46.170;7.222;2023-12-07T00:01:42;7.27;;;4.13;;
13580;SDS011;6861;46.170;7.222;2023-12-07T00:04:09;4.60;;;2.70;;
13580;SDS011;6861;46.170;7.222;2023-12-07T00:06:37;6.10;;;3.53;;
13580;SDS011;6861;46.170;7.222;2023-12-07T00:09:06;7.63;;;4.87;;
13580;SDS011;6861;46.170;7.222;2023-12-07T00:11:35;5.53;;;4.23;;
13580;SDS011;6861;46.170;7.222;2023-12-07T00:14:05;7.40;;;4.67;;
13580;SDS011;6861;46.170;7.222;2023-12-07T00:16:33;8.00;;;4.80;;
13580;SDS011;6861;46.170;7.222;2023-12-07T00:19:01;11.30;;;5.90;;
13580;SDS011;6861;46.170;7.222;2023-12-07T00:21:29;12.23;;;6.40;;
13580;SDS011;6861;46.170;7.222;2023-12-07T00:23:58;13.03;;;5.90;;
13580;SDS011;6861;46.170;7.222;2023-12-07T00:26:27;10.13;;;5.97;;
13580;SDS011;6861;46.170;7.222;2023-12-07T00:28:55;9.60;;;5.63;;
13580;SDS011;6861;46.170;7.222;2023-12-07T00:31:25;9.67;;;5.80;;
13580;SDS011;6861;46.170;7.222;2023-12-07T00:33:54;8.53;;;5.73;;
13580;SDS011;6861;46.170;7.222;2023-12-07T00:36:22;12.40;;;6.33;;
13580;SDS011;6861;46.170;7.222;2023-12-07T00:38:50;12.63;;;6.77;;
13580;SDS011;6861;46.170;7.222;2023-12-07T00:41:18;15.40;;;7.37;;
13580;SDS011;6861;46.170;7.222;2023-12-07T00:43:47;12.37;;;6.60;;
13580;SDS011;6861;46.170;7.222;2023-12-07T00:46:15;8.43;;;5.37;;
13580;SDS011;6861;46.170;7.222;2023-12-07T00:48:45;8.40;;;4.97;;
13580;SDS011;6861;46.170;7.222;2023-12-07T00:51:13;9.97;;;5.13;;
13580;SDS011;6861;46.170;7.222;2023-12-07T00:53:42;6.17;;;4.33;;
13580;SDS011;6861;46.170;7.222;2023-12-07T00:56:10;7.17;;;3.93;;
13580;SDS011;6861;46.170;7.222;2023-12-07T00:58:38;7.33;;;4.20;;
13580;SDS011;6861;46.170;7.222;2023-12-07T01:01:07;9.50;;;4.50;;
13580;SDS011;6861;46.170;7.222;2023-12-07T01:03:35;6.27;;;4.40;;
13580;SDS011;6861;46.170;7.222;2023-12-07T01:06:08;6.27;;;4.53;;
13580;SDS011;6861;46.170;7.222;2023-12-07T01:08:38;9.57;;;4.50;;
13580;SDS011;6861;46.170;7.222;2023-12-07T01:11:06;7.50;;;4.63;;
13580;SDS011;6861;46.170;7.222;2023-12-07T01:13:34;7.50;;;4.70;;
13580;SDS011;6861;46.170;7.222;2023-12-07T01:16:03;11.40;;;5.80;;
13580;SDS011;6861;46.170;7.222;2023-12-07T01:18:32;12.63;;;6.00;;
13580;SDS011;6861;46.170;7.222;2023-12-07T01:21:00;8.37;;;4.40;;
13580;SDS011;6861;46.170;7.222;2023-12-07T01:23:31;6.20;;;4.17;;
13580;SDS011;6861;46.170;7.222;2023-12-07T01:25:59;5.57;;;4.07;;
13580;SDS011;6861;46.170;7.222;2023-12-07T01:28:29;9.47;;;5.60;;
13580;SDS011;6861;46.170;7.222;2023-12-07T01:30:58;8.90;;;4.83;;
13580;SDS011;6861;46.170;7.222;2023-12-07T01:33:26;7.13;;;4.50;;
13580;SDS011;6861;46.170;7.222;2023-12-07T01:35:54;7.30;;;4.80;;
13580;SDS011;6861;46.170;7.222;2023-12-07T01:38:23;8.03;;;5.27;;
13580;SDS011;6861;46.170;7.222;2023-12-07T01:40:53;8.77;;;5.27;;
13580;SDS011;6861;46.170;7.222;2023-12-07T01:43:22;7.53;;;4.93;;
13580;SDS011;6861;46.170;7.222;2023-12-07T01:45:51;8.07;;;5.40;;
13580;SDS011;6861;46.170;7.222;2023-12-07T01:48:21;7.70;;;5.40;;
13580;SDS011;6861;46.170;7.222;2023-12-07T01:50:50;7.23;;;4.73;;
13580;SDS011;6861;46.170;7.222;2023-12-07T01:53:19;7.37;;;4.70;;
13580;SDS011;6861;46.170;7.222;2023-12-07T01:55:50;11.20;;;4.97;;
13580;SDS011;6861;46.170;7.222;2023-12-07T01:58:21;8.67;;;5.33;;
13580;SDS011;6861;46.170;7.222;2023-12-07T02:00:49;7.03;;;4.77;;
13580;SDS011;6861;46.170;7.222;2023-12-07T02:03:17;8.07;;;4.83;;
13580;SDS011;6861;46.170;7.222;2023-12-07T02:05:47;7.17;;;4.93;;
13580;SDS011;6861;46.170;7.222;2023-12-07T02:08:16;8.50;;;5.07;;
13580;SDS011;6861;46.170;7.222;2023-12-07T02:10:44;5.30;;;4.10;;
13580;SDS011;6861;46.170;7.222;2023-12-07T02:13:14;5.90;;;3.67;;
13580;SDS011;6861;46.170;7.222;2023-12-07T02:15:42;5.00;;;4.00;;
13580;SDS011;6861;46.170;7.222;2023-12-07T02:18:12;6.20;;;4.60;;
13580;SDS011;6861;46.170;7.222;2023-12-07T02:20:44;6.53;;;4.47;;
13580;SDS011;6861;46.170;7.222;2023-12-07T02:23:18;7.70;;;4.80;;
13580;SDS011;6861;46.170;7.222;2023-12-07T02:26:21;5.70;;;4.43;;
13580;SDS011;6861;46.170;7.222;2023-12-07T02:28:57;5.47;;;4.23;;
13580;SDS011;6861;46.170;7.222;2023-12-07T02:31:26;5.93;;;4.40;;
13580;SDS011;6861;46.170;7.222;2023-12-07T02:33:55;4.73;;;3.30;;
13580;SDS011;6861;46.170;7.222;2023-12-07T02:36:24;6.97;;;3.07;;
13580;SDS011;6861;46.170;7.222;2023-12-07T02:38:56;5.70;;;3.47;;
13580;SDS011;6861;46.170;7.222;2023-12-07T02:41:29;3.93;;;3.00;;
13580;SDS011;6861;46.170;7.222;2023-12-07T02:43:59;5.33;;;3.00;;
13580;SDS011;6861;46.170;7.222;2023-12-07T02:46:27;5.47;;;3.60;;
13580;SDS011;6861;46.170;7.222;2023-12-07T02:48:56;5.97;;;3.90;;
13580;SDS011;6861;46.170;7.222;2023-12-07T02:51:25;5.20;;;3.63;;
13580;SDS011;6861;46.170;7.222;2023-12-07T02:53:53;5.80;;;3.00;;
13580;SDS011;6861;46.170;7.222;2023-12-07T02:56:21;4.17;;;3.27;;
13580;SDS011;6861;46.170;7.222;2023-12-07T02:58:51;3.97;;;2.33;;
13580;SDS011;6861;46.170;7.222;2023-12-07T03:01:19;3.73;;;2.47;;
13580;SDS011;6861;46.170;7.222;2023-12-07T03:03:47;3.63;;;2.47;;
13580;SDS011;6861;46.170;7.222;2023-12-07T03:06:16;4.63;;;3.10;;
13580;SDS011;6861;46.170;7.222;2023-12-07T03:08:46;4.67;;;3.00;;
13580;SDS011;6861;46.170;7.222;2023-12-07T03:11:14;4.73;;;3.03;;
13580;SDS011;6861;46.170;7.222;2023-12-07T03:13:42;6.40;;;3.80;;
13580;SDS011;6861;46.170;7.222;2023-12-07T03:16:12;4.60;;;3.43;;
13580;SDS011;6861;46.170;7.222;2023-12-07T03:18:40;5.20;;;3.00;;
13580;SDS011;6861;46.170;7.222;2023-12-07T03:21:09;5.97;;;3.30;;
13580;SDS011;6861;46.170;7.222;2023-12-07T03:23:37;5.70;;;3.40;;
13580;SDS011;6861;46.170;7.222;2023-12-07T03:26:05;5.80;;;4.50;;
13580;SDS011;6861;46.170;7.222;2023-12-07T03:28:33;3.67;;;2.70;;
13580;SDS011;6861;46.170;7.222;2023-12-07T03:31:02;4.50;;;3.30;;
13580;SDS011;6861;46.170;7.222;2023-12-07T03:33:32;5.20;;;3.47;;
13580;SDS011;6861;46.170;7.222;2023-12-07T03:36:00;3.83;;;2.60;;
13580;SDS011;6861;46.170;7.222;2023-12-07T03:38:28;4.20;;;2.83;;
13580;SDS011;6861;46.170;7.222;2023-12-07T03:40:57;3.57;;;3.10;;
13580;SDS011;6861;46.170;7.222;2023-12-07T03:43:25;4.17;;;3.20;;
13580;SDS011;6861;46.170;7.222;2023-12-07T03:45:53;4.37;;;3.27;;
13580;SDS011;6861;46.170;7.222;2023-12-07T03:48:21;5.37;;;3.80;;
13580;SDS011;6861;46.170;7.222;2023-12-07T03:50:51;4.83;;;3.87;;
13580;SDS011;6861;46.170;7.222;2023-12-07T03:53:19;5.30;;;3.97;;
13580;SDS011;6861;46.170;7.222;2023-12-07T03:55:47;6.60;;;4.43;;
13580;SDS011;6861;46.170;7.222;2023-12-07T03:58:15;6.57;;;3.50;;
13580;SDS011;6861;46.170;7.222;2023-12-07T04:00:44;5.90;;;4.40;;
13580;SDS011;6861;46.170;7.222;2023-12-07T04:03:13;5.77;;;4.33;;
13580;SDS011;6861;46.170;7.222;2023-12-07T04:05:41;4.50;;;3.17;;
13580;SDS011;6861;46.170;7.222;2023-12-07T04:08:11;5.80;;;3.70;;
13580;SDS011;6861;46.170;7.222;2023-12-07T04:10:39;6.83;;;4.20;;
13580;SDS011;6861;46.170;7.222;2023-12-07T04:13:08;5.73;;;4.80;;
13580;SDS011;6861;46.170;7.222;2023-12-07T04:15:36;6.40;;;5.30;;
13580;SDS011;6861;46.170;7.222;2023-12-07T04:18:04;6.63;;;4.70;;
13580;SDS011;6861;46.170;7.222;2023-12-07T04:20:33;7.10;;;5.23;;
13580;SDS011;6861;46.170;7.222;2023-12-07T04:23:01;6.37;;;5.00;;
13580;SDS011;6861;46.170;7.222;2023-12-07T04:25:30;6.90;;;4.83;;
13580;SDS011;6861;46.170;7.222;2023-12-07T04:27:59;6.63;;;4.57;;
13580;SDS011;6861;46.170;7.222;2023-12-07T04:30:27;6.30;;;4.50;;
13580;SDS011;6861;46.170;7.222;2023-12-07T04:32:55;6.23;;;4.83;;
13580;SDS011;6861;46.170;7.222;2023-12-07T04:35:23;7.97;;;5.13;;
13580;SDS011;6861;46.170;7.222;2023-12-07T04:37:51;7.97;;;5.30;;
13580;SDS011;6861;46.170;7.222;2023-12-07T04:40:20;6.47;;;4.90;;
13580;SDS011;6861;46.170;7.222;2023-12-07T04:42:50;7.83;;;4.83;;
13580;SDS011;6861;46.170;7.222;2023-12-07T04:45:18;6.63;;;4.77;;
13580;SDS011;6861;46.170;7.222;2023-12-07T04:47:46;7.23;;;5.70;;
13580;SDS011;6861;46.170;7.222;2023-12-07T04:50:15;8.37;;;5.77;;
13580;SDS011;6861;46.170;7.222;2023-12-07T04:52:43;10.40;;;6.60;;
13580;SDS011;6861;46.170;7.222;2023-12-07T04:55:11;10.73;;;7.17;;
13580;SDS011;6861;46.170;7.222;2023-12-07T04:57:39;7.90;;;5.70;;
13580;SDS011;6861;46.170;7.222;2023-12-07T05:00:10;12.60;;;7.63;;
13580;SDS011;6861;46.170;7.222;2023-12-07T05:02:40;9.47;;;6.03;;
13580;SDS011;6861;46.170;7.222;2023-12-07T05:05:08;4.87;;;4.17;;
13580;SDS011;6861;46.170;7.222;2023-12-07T05:07:36;4.73;;;3.50;;
13580;SDS011;6861;46.170;7.222;2023-12-07T05:10:05;5.33;;;3.70;;
13580;SDS011;6861;46.170;7.222;2023-12-07T05:12:34;12.97;;;7.00;;
13580;SDS011;6861;46.170;7.222;2023-12-07T05:15:03;10.50;;;6.23;;
13580;SDS011;6861;46.170;7.222;2023-12-07T05:17:34;5.50;;;4.10;;
13580;SDS011;6861;46.170;7.222;2023-12-07T05:20:03;6.70;;;4.60;;
13580;SDS011;6861;46.170;7.222;2023-12-07T05:22:33;5.83;;;4.10;;
13580;SDS011;6861;46.170;7.222;2023-12-07T05:25:02;6.70;;;3.77;;
13580;SDS011;6861;46.170;7.222;2023-12-07T05:27:31;6.20;;;4.60;;
13580;SDS011;6861;46.170;7.222;2023-12-07T05:29:59;7.30;;;4.63;;
13580;SDS011;6861;46.170;7.222;2023-12-07T05:32:28;6.80;;;4.53;;
13580;SDS011;6861;46.170;7.222;2023-12-07T05:34:57;12.77;;;7.03;;
13580;SDS011;6861;46.170;7.222;2023-12-07T05:37:26;5.87;;;4.17;;
13580;SDS011;6861;46.170;7.222;2023-12-07T05:39:54;5.20;;;4.30;;
13580;SDS011;6861;46.170;7.222;2023-12-07T05:42:23;5.30;;;4.17;;
13580;SDS011;6861;46.170;7.222;2023-12-07T05:44:52;7.07;;;4.60;;
13580;SDS011;6861;46.170;7.222;2023-12-07T05:47:20;4.83;;;4.17;;
13580;SDS011;6861;46.170;7.222;2023-12-07T05:49:50;7.63;;;4.60;;
13580;SDS011;6861;46.170;7.222;2023-12-07T05:52:19;6.70;;;4.73;;
13580;SDS011;6861;46.170;7.222;2023-12-07T05:54:48;6.83;;;4.77;;
13580;SDS011;6861;46.170;7.222;2023-12-07T05:57:16;5.30;;;4.10;;
13580;SDS011;6861;46.170;7.222;2023-12-07T05:59:45;5.37;;;3.93;;
13580;SDS011;6861;46.170;7.222;2023-12-07T06:02:13;7.17;;;4.00;;
13580;SDS011;6861;46.170;7.222;2023-12-07T06:04:42;5.33;;;4.10;;
13580;SDS011;6861;46.170;7.222;2023-12-07T06:07:10;7.57;;;5.10;;
13580;SDS011;6861;46.170;7.222;2023-12-07T06:09:40;7.50;;;4.83;;
13580;SDS011;6861;46.170;7.222;2023-12-07T06:12:09;6.60;;;4.30;;
13580;SDS011;6861;46.170;7.222;2023-12-07T06:14:37;5.23;;;3.73;;
13580;SDS011;6861;46.170;7.222;2023-12-07T06:17:06;5.50;;;4.00;;
13580;SDS011;6861;46.170;7.222;2023-12-07T06:19:34;4.07;;;3.50;;
13580;SDS011;6861;46.170;7.222;2023-12-07T06:22:03;6.17;;;3.93;;
13580;SDS011;6861;46.170;7.222;2023-12-07T06:24:32;6.67;;;3.87;;
13580;SDS011;6861;46.170;7.222;2023-12-07T06:27:03;5.43;;;3.70;;
13580;SDS011;6861;46.170;7.222;2023-12-07T06:29:33;7.43;;;4.57;;
13580;SDS011;6861;46.170;7.222;2023-12-07T06:32:01;6.17;;;4.17;;
13580;SDS011;6861;46.170;7.222;2023-12-07T06:34:30;7.57;;;4.23;;
13580;SDS011;6861;46.170;7.222;2023-12-07T06:36:58;6.23;;;3.50;;
13580;SDS011;6861;46.170;7.222;2023-12-07T06:39:26;6.33;;;3.70;;
13580;SDS011;6861;46.170;7.222;2023-12-07T06:41:55;14.83;;;9.17;;
13580;SDS011;6861;46.170;7.222;2023-12-07T06:44:24;13.77;;;8.07;;
13580;SDS011;6861;46.170;7.222;2023-12-07T06:46:52;14.20;;;7.13;;
13580;SDS011;6861;46.170;7.222;2023-12-07T06:49:21;10.07;;;6.23;;
13580;SDS011;6861;46.170;7.222;2023-12-07T06:52:00;6.87;;;4.50;;
13580;SDS011;6861;46.170;7.222;2023-12-07T06:54:28;5.53;;;4.00;;
13580;SDS011;6861;46.170;7.222;2023-12-07T06:56:56;5.53;;;4.33;;
13580;SDS011;6861;46.170;7.222;2023-12-07T06:59:26;5.03;;;3.60;;
13580;SDS011;6861;46.170;7.222;2023-12-07T07:01:53;6.50;;;3.10;;
13580;SDS011;6861;46.170;7.222;2023-12-07T07:04:21;4.97;;;3.47;;
13580;SDS011;6861;46.170;7.222;2023-12-07T07:06:50;5.40;;;3.70;;
13580;SDS011;6861;46.170;7.222;2023-12-07T07:09:18;4.80;;;3.23;;
13580;SDS011;6861;46.170;7.222;2023-12-07T07:11:47;7.70;;;4.77;;
13580;SDS011;6861;46.170;7.222;2023-12-07T07:14:15;6.77;;;4.20;;
13580;SDS011;6861;46.170;7.222;2023-12-07T07:16:45;6.33;;;4.27;;
13580;SDS011;6861;46.170;7.222;2023-12-07T07:19:13;9.53;;;6.77;;
13580;SDS011;6861;46.170;7.222;2023-12-07T07:21:43;7.10;;;5.20;;
13580;SDS011;6861;46.170;7.222;2023-12-07T07:24:12;4.80;;;3.80;;
13580;SDS011;6861;46.170;7.222;2023-12-07T07:26:40;7.20;;;5.07;;
13580;SDS011;6861;46.170;7.222;2023-12-07T07:29:08;7.50;;;5.20;;
13580;SDS011;6861;46.170;7.222;2023-12-07T07:31:37;4.40;;;3.50;;
13580;SDS011;6861;46.170;7.222;2023-12-07T07:34:07;5.77;;;3.33;;
13580;SDS011;6861;46.170;7.222;2023-12-07T07:36:35;6.37;;;3.37;;
13580;SDS011;6861;46.170;7.222;2023-12-07T07:39:04;5.50;;;3.43;;
13580;SDS011;6861;46.170;7.222;2023-12-07T07:41:34;7.30;;;4.13;;
13580;SDS011;6861;46.170;7.222;2023-12-07T07:44:03;7.90;;;3.53;;
13580;SDS011;6861;46.170;7.222;2023-12-07T07:46:31;4.23;;;3.17;;
13580;SDS011;6861;46.170;7.222;2023-12-07T07:48:59;4.73;;;3.13;;
13580;SDS011;6861;46.170;7.222;2023-12-07T07:51:32;4.10;;;3.00;;
13580;SDS011;6861;46.170;7.222;2023-12-07T07:54:00;9.87;;;5.13;;
13580;SDS011;6861;46.170;7.222;2023-12-07T07:56:29;10.30;;;5.33;;
13580;SDS011;6861;46.170;7.222;2023-12-07T07:58:57;6.83;;;3.93;;
13580;SDS011;6861;46.170;7.222;2023-12-07T08:01:27;5.57;;;3.20;;
13580;SDS011;6861;46.170;7.222;2023-12-07T08:03:55;6.00;;;3.10;;
13580;SDS011;6861;46.170;7.222;2023-12-07T08:06:23;6.83;;;3.13;;
13580;SDS011;6861;46.170;7.222;2023-12-07T08:08:53;4.23;;;3.33;;
13580;SDS011;6861;46.170;7.222;2023-12-07T08:11:21;4.90;;;3.23;;
13580;SDS011;6861;46.170;7.222;2023-12-07T08:13:49;6.07;;;3.17;;
13580;SDS011;6861;46.170;7.222;2023-12-07T08:16:18;7.33;;;4.93;;
13580;SDS011;6861;46.170;7.222;2023-12-07T08:18:46;7.47;;;4.83;;
13580;SDS011;6861;46.170;7.222;2023-12-07T08:21:18;7.47;;;4.17;;
13580;SDS011;6861;46.170;7.222;2023-12-07T08:23:55;9.57;;;5.53;;
13580;SDS011;6861;46.170;7.222;2023-12-07T08:26:23;6.50;;;3.57;;
13580;SDS011;6861;46.170;7.222;2023-12-07T08:28:54;8.70;;;3.90;;
13580;SDS011;6861;46.170;7.222;2023-12-07T08:31:22;5.17;;;2.77;;
13580;SDS011;6861;46.170;7.222;2023-12-07T08:33:51;4.10;;;2.80;;
13580;SDS011;6861;46.170;7.222;2023-12-07T08:36:20;8.00;;;4.27;;
13580;SDS011;6861;46.170;7.222;2023-12-07T08:38:48;4.03;;;2.70;;
13580;SDS011;6861;46.170;7.222;2023-12-07T08:41:18;6.80;;;3.47;;
13580;SDS011;6861;46.170;7.222;2023-12-07T08:43:46;8.13;;;3.63;;
13580;SDS011;6861;46.170;7.222;2023-12-07T08:46:14;9.47;;;4.43;;
13580;SDS011;6861;46.170;7.222;2023-12-07T08:48:42;12.27;;;4.97;;
13580;SDS011;6861;46.170;7.222;2023-12-07T08:51:11;13.20;;;5.60;;
13580;SDS011;6861;46.170;7.222;2023-12-07T08:53:39;7.07;;;3.57;;
13580;SDS011;6861;46.170;7.222;2023-12-07T08:56:07;4.83;;;3.40;;
13580;SDS011;6861;46.170;7.222;2023-12-07T08:58:37;6.53;;;3.27;;
13580;SDS011;6861;46.170;7.222;2023-12-07T09:01:06;9.37;;;4.13;;
13580;SDS011;6861;46.170;7.222;2023-12-07T09:03:44;6.43;;;3.60;;
13580;SDS011;6861;46.170;7.222;2023-12-07T09:06:13;3.97;;;3.37;;
13580;SDS011;6861;46.170;7.222;2023-12-07T09:08:41;4.10;;;2.60;;
13580;SDS011;6861;46.170;7.222;2023-12-07T09:11:09;6.07;;;3.43;;
13580;SDS011;6861;46.170;7.222;2023-12-07T09:13:39;8.00;;;4.93;;
13580;SDS011;6861;46.170;7.222;2023-12-07T09:16:07;8.70;;;3.50;;
13580;SDS011;6861;46.170;7.222;2023-12-07T09:18:36;5.23;;;2.80;;
13580;SDS011;6861;46.170;7.222;2023-12-07T09:21:04;13.87;;;4.97;;
13580;SDS011;6861;46.170;7.222;2023-12-07T09:23:34;3.67;;;2.40;;
13580;SDS011;6861;46.170;7.222;2023-12-07T09:26:04;6.73;;;2.77;;
13580;SDS011;6861;46.170;7.222;2023-12-07T09:28:32;7.93;;;2.60;;
13580;SDS011;6861;46.170;7.222;2023-12-07T09:31:03;5.07;;;2.77;;
13580;SDS011;6861;46.170;7.222;2023-12-07T09:33:31;21.50;;;8.20;;
13580;SDS011;6861;46.170;7.222;2023-12-07T09:35:59;22.73;;;8.13;;
13580;SDS011;6861;46.170;7.222;2023-12-07T09:38:30;19.40;;;7.50;;
13580;SDS011;6861;46.170;7.222;2023-12-07T09:40:58;15.43;;;6.80;;
13580;SDS011;6861;46.170;7.222;2023-12-07T09:43:26;7.17;;;3.50;;
13580;SDS011;6861;46.170;7.222;2023-12-07T09:45:55;3.43;;;2.20;;
13580;SDS011;6861;46.170;7.222;2023-12-07T09:48:26;7.07;;;3.17;;
13580;SDS011;6861;46.170;7.222;2023-12-07T09:50:55;4.17;;;2.30;;
13580;SDS011;6861;46.170;7.222;2023-12-07T09:53:24;6.30;;;2.50;;
13580;SDS011;6861;46.170;7.222;2023-12-07T09:55:53;27.93;;;11.07;;
13580;SDS011;6861;46.170;7.222;2023-12-07T09:58:21;2.70;;;1.73;;
13580;SDS011;6861;46.170;7.222;2023-12-07T10:01:04;6.43;;;2.40;;
13580;SDS011;6861;46.170;7.222;2023-12-07T10:03:34;6.97;;;4.63;;
13580;SDS011;6861;46.170;7.222;2023-12-07T10:06:02;9.80;;;4.73;;
13580;SDS011;6861;46.170;7.222;2023-12-07T10:08:32;8.20;;;3.90;;
13580;SDS011;6861;46.170;7.222;2023-12-07T10:11:03;9.80;;;3.70;;
13580;SDS011;6861;46.170;7.222;2023-12-07T10:13:33;6.73;;;3.27;;
13580;SDS011;6861;46.170;7.222;2023-12-07T10:16:10;5.77;;;2.87;;
13580;SDS011;6861;46.170;7.222;2023-12-07T10:18:41;6.73;;;3.13;;
13580;SDS011;6861;46.170;7.222;2023-12-07T10:21:11;6.13;;;3.20;;
13580;SDS011;6861;46.170;7.222;2023-12-07T10:23:41;10.70;;;5.80;;
13580;SDS011;6861;46.170;7.222;2023-12-07T10:26:15;6.77;;;4.20;;
13580;SDS011;6861;46.170;7.222;2023-12-07T10:28:48;5.43;;;3.43;;
13580;SDS011;6861;46.170;7.222;2023-12-07T10:31:20;4.40;;;2.83;;
13580;SDS011;6861;46.170;7.222;2023-12-07T10:33:51;32.60;;;9.63;;
13580;SDS011;6861;46.170;7.222;2023-12-07T10:36:20;19.63;;;7.33;;
13580;SDS011;6861;46.170;7.222;2023-12-07T10:38:50;45.30;;;14.37;;
13580;SDS011;6861;46.170;7.222;2023-12-07T10:41:18;5.10;;;2.57;;
13580;SDS011;6861;46.170;7.222;2023-12-07T10:43:48;3.17;;;2.03;;
13580;SDS011;6861;46.170;7.222;2023-12-07T10:46:19;5.80;;;2.10;;
13580;SDS011;6861;46.170;7.222;2023-12-07T10:48:51;3.97;;;2.27;;
13580;SDS011;6861;46.170;7.222;2023-12-07T10:51:30;6.40;;;3.17;;
13580;SDS011;6861;46.170;7.222;2023-12-07T10:54:02;3.27;;;1.67;;
13580;SDS011;6861;46.170;7.222;2023-12-07T10:56:35;3.07;;;1.40;;
13580;SDS011;6861;46.170;7.222;2023-12-07T10:59:08;3.00;;;1.23;;
13580;SDS011;6861;46.170;7.222;2023-12-07T11:01:52;4.53;;;2.60;;
13580;SDS011;6861;46.170;7.222;2023-12-07T11:04:23;2.40;;;1.80;;
13580;SDS011;6861;46.170;7.222;2023-12-07T11:06:54;5.20;;;1.80;;
13580;SDS011;6861;46.170;7.222;2023-12-07T11:09:30;3.83;;;1.70;;
13580;SDS011;6861;46.170;7.222;2023-12-07T11:12:09;3.93;;;2.07;;
13580;SDS011;6861;46.170;7.222;2023-12-07T11:14:44;2.10;;;1.50;;
13580;SDS011;6861;46.170;7.222;2023-12-07T11:17:14;2.73;;;1.30;;
13580;SDS011;6861;46.170;7.222;2023-12-07T11:19:44;2.67;;;1.20;;
13580;SDS011;6861;46.170;7.222;2023-12-07T11:22:14;1.60;;;1.20;;
13580;SDS011;6861;46.170;7.222;2023-12-07T11:24:53;1.55;;;1.25;;
13580;SDS011;6861;46.170;7.222;2023-12-07T11:27:24;1.90;;;1.50;;
13580;SDS011;6861;46.170;7.222;2023-12-07T11:29:58;4.22;;;1.67;;
13580;SDS011;6861;46.170;7.222;2023-12-07T11:32:28;2.78;;;2.03;;
13580;SDS011;6861;46.170;7.222;2023-12-07T11:35:01;4.97;;;1.90;;
13580;SDS011;6861;46.170;7.222;2023-12-07T11:40:36;4.18;;;1.65;;
13580;SDS011;6861;46.170;7.222;2023-12-07T11:43:05;3.70;;;1.80;;
13580;SDS011;6861;46.170;7.222;2023-12-07T11:45:37;3.08;;;1.92;;
13580;SDS011;6861;46.170;7.222;2023-12-07T11:48:06;3.60;;;1.60;;
13580;SDS011;6861;46.170;7.222;2023-12-07T11:50:45;4.20;;;1.70;;
13580;SDS011;6861;46.170;7.222;2023-12-07T11:53:22;3.72;;;1.85;;
13580;SDS011;6861;46.170;7.222;2023-12-07T11:55:52;4.30;;;1.95;;
13580;SDS011;6861;46.170;7.222;2023-12-07T11:58:20;3.22;;;1.60;;
13580;SDS011;6861;46.170;7.222;2023-12-07T12:00:50;2.40;;;1.48;;
13580;SDS011;6861;46.170;7.222;2023-12-07T12:03:20;2.17;;;1.52;;
13580;SDS011;6861;46.170;7.222;2023-12-07T12:05:50;3.85;;;1.85;;
13580;SDS011;6861;46.170;7.222;2023-12-07T12:08:18;4.10;;;1.80;;
13580;SDS011;6861;46.170;7.222;2023-12-07T12:10:47;2.20;;;1.45;;
13580;SDS011;6861;46.170;7.222;2023-12-07T12:13:18;3.95;;;1.52;;
13580;SDS011;6861;46.170;7.222;2023-12-07T12:15:47;3.85;;;1.38;;
13580;SDS011;6861;46.170;7.222;2023-12-07T12:18:16;4.38;;;1.77;;
13580;SDS011;6861;46.170;7.222;2023-12-07T12:20:45;10.52;;;2.70;;
13580;SDS011;6861;46.170;7.222;2023-12-07T12:23:14;5.90;;;2.70;;
13580;SDS011;6861;46.170;7.222;2023-12-07T12:25:43;4.00;;;2.03;;
13580;SDS011;6861;46.170;7.222;2023-12-07T12:28:13;3.28;;;1.50;;
13580;SDS011;6861;46.170;7.222;2023-12-07T12:30:44;6.13;;;2.58;;
13580;SDS011;6861;46.170;7.222;2023-12-07T12:33:13;3.47;;;1.92;;
13580;SDS011;6861;46.170;7.222;2023-12-07T12:35:41;3.40;;;1.80;;
13580;SDS011;6861;46.170;7.222;2023-12-07T12:38:11;3.08;;;1.88;;
13580;SDS011;6861;46.170;7.222;2023-12-07T12:40:54;4.65;;;2.20;;
13580;SDS011;6861;46.170;7.222;2023-12-07T12:43:23;4.95;;;2.17;;
13580;SDS011;6861;46.170;7.222;2023-12-07T12:45:51;4.50;;;2.08;;
13580;SDS011;6861;46.170;7.222;2023-12-07T12:48:31;3.47;;;1.90;;
13580;SDS011;6861;46.170;7.222;2023-12-07T12:51:07;4.30;;;1.88;;
13580;SDS011;6861;46.170;7.222;2023-12-07T12:53:36;3.40;;;2.00;;
13580;SDS011;6861;46.170;7.222;2023-12-07T12:56:13;3.45;;;1.95;;
13580;SDS011;6861;46.170;7.222;2023-12-07T12:58:41;4.10;;;2.03;;
13580;SDS011;6861;46.170;7.222;2023-12-07T13:01:10;3.60;;;2.08;;
13580;SDS011;6861;46.170;7.222;2023-12-07T13:03:39;2.83;;;1.40;;
13580;SDS011;6861;46.170;7.222;2023-12-07T13:06:07;2.33;;;1.30;;
13580;SDS011;6861;46.170;7.222;2023-12-07T13:08:36;2.13;;;1.30;;
13580;SDS011;6861;46.170;7.222;2023-12-07T13:11:04;1.55;;;1.27;;
13580;SDS011;6861;46.170;7.222;2023-12-07T13:13:34;2.25;;;1.48;;
13580;SDS011;6861;46.170;7.222;2023-12-07T13:16:03;3.40;;;1.50;;
13580;SDS011;6861;46.170;7.222;2023-12-07T13:18:32;2.58;;;1.80;;
13580;SDS011;6861;46.170;7.222;2023-12-07T13:21:00;1.75;;;1.38;;
13580;SDS011;6861;46.170;7.222;2023-12-07T13:23:29;3.10;;;1.95;;
13580;SDS011;6861;46.170;7.222;2023-12-07T13:25:57;3.35;;;2.30;;
13580;SDS011;6861;46.170;7.222;2023-12-07T13:28:25;1.95;;;1.30;;
13580;SDS011;6861;46.170;7.222;2023-12-07T13:30:55;3.88;;;1.48;;
13580;SDS011;6861;46.170;7.222;2023-12-07T13:33:23;3.72;;;1.40;;
13580;SDS011;6861;46.170;7.222;2023-12-07T13:35:57;1.98;;;1.60;;
13580;SDS011;6861;46.170;7.222;2023-12-07T13:38:32;6.20;;;2.15;;
13580;SDS011;6861;46.170;7.222;2023-12-07T13:41:01;3.50;;;2.00;;
13580;SDS011;6861;46.170;7.222;2023-12-07T13:43:29;2.83;;;1.75;;
13580;SDS011;6861;46.170;7.222;2023-12-07T13:46:01;2.63;;;1.73;;
13580;SDS011;6861;46.170;7.222;2023-12-07T13:48:29;2.78;;;1.42;;
13580;SDS011;6861;46.170;7.222;2023-12-07T13:50:57;3.55;;;1.60;;
13580;SDS011;6861;46.170;7.222;2023-12-07T13:53:25;3.22;;;1.77;;
13580;SDS011;6861;46.170;7.222;2023-12-07T13:55:53;1.88;;;1.58;;
13580;SDS011;6861;46.170;7.222;2023-12-07T13:58:21;2.88;;;2.28;;
13580;SDS011;6861;46.170;7.222;2023-12-07T14:00:50;2.80;;;1.60;;
13580;SDS011;6861;46.170;7.222;2023-12-07T14:03:19;2.78;;;1.63;;
13580;SDS011;6861;46.170;7.222;2023-12-07T14:05:48;3.95;;;1.70;;
13580;SDS011;6861;46.170;7.222;2023-12-07T14:08:16;2.72;;;1.33;;
13580;SDS011;6861;46.170;7.222;2023-12-07T14:10:45;1.55;;;1.30;;
13580;SDS011;6861;46.170;7.222;2023-12-07T14:13:14;2.13;;;1.45;;
13580;SDS011;6861;46.170;7.222;2023-12-07T14:15:44;2.20;;;1.50;;
13580;SDS011;6861;46.170;7.222;2023-12-07T14:18:12;3.58;;;1.90;;
13580;SDS011;6861;46.170;7.222;2023-12-07T14:20:43;2.17;;;1.45;;
13580;SDS011;6861;46.170;7.222;2023-12-07T14:23:31;2.72;;;1.90;;
13580;SDS011;6861;46.170;7.222;2023-12-07T14:26:01;2.60;;;1.80;;
13580;SDS011;6861;46.170;7.222;2023-12-07T14:28:32;3.85;;;1.60;;
13580;SDS011;6861;46.170;7.222;2023-12-07T14:31:02;4.45;;;1.70;;
13580;SDS011;6861;46.170;7.222;2023-12-07T14:33:31;2.60;;;1.40;;
13580;SDS011;6861;46.170;7.222;2023-12-07T14:36:01;2.30;;;1.60;;
13580;SDS011;6861;46.170;7.222;2023-12-07T14:38:31;2.78;;;1.58;;
13580;SDS011;6861;46.170;7.222;2023-12-07T14:40:59;1.77;;;1.17;;
13580;SDS011;6861;46.170;7.222;2023-12-07T14:43:27;4.57;;;1.90;;
13580;SDS011;6861;46.170;7.222;2023-12-07T14:45:55;2.97;;;1.70;;
13580;SDS011;6861;46.170;7.222;2023-12-07T14:48:23;2.38;;;1.40;;
13580;SDS011;6861;46.170;7.222;2023-12-07T14:50:52;2.00;;;1.60;;
13580;SDS011;6861;46.170;7.222;2023-12-07T14:53:21;3.38;;;1.60;;
13580;SDS011;6861;46.170;7.222;2023-12-07T14:55:51;2.13;;;1.10;;
13580;SDS011;6861;46.170;7.222;2023-12-07T14:58:20;3.17;;;1.38;;
13580;SDS011;6861;46.170;7.222;2023-12-07T15:00:48;2.00;;;1.20;;
13580;SDS011;6861;46.170;7.222;2023-12-07T15:03:16;2.63;;;1.48;;
13580;SDS011;6861;46.170;7.222;2023-12-07T15:05:45;3.33;;;1.65;;
13580;SDS011;6861;46.170;7.222;2023-12-07T15:08:13;2.03;;;1.20;;
13580;SDS011;6861;46.170;7.222;2023-12-07T15:10:43;2.47;;;1.60;;
13580;SDS011;6861;46.170;7.222;2023-12-07T15:13:11;4.97;;;1.80;;
13580;SDS011;6861;46.170;7.222;2023-12-07T15:15:40;2.67;;;1.65;;
13580;SDS011;6861;46.170;7.222;2023-12-07T15:18:10;3.42;;;1.83;;